Terminal Aerodrome Forecast
Issued by NWS

Home | Current Version | Previous Version | Text Only | Print | Product List | Glossary On
Versions: 1 2 3 4 5 6 7 8 9 10 11 12
000
FTUS45 KTFX 261120
TAFHVR
TAF
KHVR 261120Z 2612/2712 08009KT P6SM SCT150
     FM270000 01006KT P6SM VCTS SCT060CB BKN100 PROB30 2703/2706
      VRB20G30KT -TSRA OVC040CB
     FM270600 08008KT P6SM BKN080=

USA.gov is the U.S. government's official web portal to all federal, state and local government web resources and services.